Lewistown, Montana
Current Conditions -  °F | °C
As of 9:54 AM on Thursday 30 Oct 2014 (Local Time) from KLWT Reporting Station
Clear Clear  
Wind Chill: 39°   Ceiling: Unl
Heat Index: 43°   Visibility: 10mi
Dew Point: 31°   Wind: 6mph
Humidity: 62%   Direction: 100°E
Pressure: 30.29"   Gusts: NA
Location:  47.07°N, 109.42°W
Report Text: KLWT 301554Z AUTO 10005KT 10SM CLR 06/M01 A3029 RMK AO2 SLP267 T00611006
Loading
Personal Weather Stations






























Interactive Weather Map New forecast layout! Learn more

10-Day Weather Forecast

Advertisements
Track Severe Weather on mobile